createdAt,value
2022-11-14T00:02:55.532Z,101785.50
2022-11-14T00:05:57.081Z,101785.56
2022-11-14T00:08:58.644Z,101781.19
2022-11-14T00:12:00.194Z,101777.72
2022-11-14T00:15:01.759Z,101777.00
2022-11-14T00:18:03.423Z,101776.22
2022-11-14T00:21:05.244Z,101776.28
2022-11-14T00:24:06.911Z,101764.84
2022-11-14T00:27:08.486Z,101761.31
2022-11-14T00:30:10.423Z,101768.34
2022-11-14T00:33:15.853Z,101766.69
2022-11-14T00:36:20.441Z,101762.28
2022-11-14T00:39:21.984Z,101762.28
2022-11-14T00:42:23.552Z,101762.28
2022-11-14T00:45:25.075Z,101758.78
2022-11-14T00:48:26.812Z,101762.28
2022-11-14T00:51:28.529Z,101753.47
2022-11-14T00:54:30.070Z,101748.25
2022-11-14T00:57:31.600Z,101744.75
2022-11-14T01:00:33.331Z,101750.09
2022-11-14T01:03:34.997Z,101743.06
2022-11-14T01:06:36.540Z,101730.78
2022-11-14T01:09:38.261Z,101723.75
2022-11-14T01:12:39.774Z,101720.22
2022-11-14T01:15:47.426Z,101721.16
2022-11-14T01:18:48.941Z,101716.78
2022-11-14T01:21:50.496Z,101712.34
2022-11-14T01:24:52.188Z,101713.22
2022-11-14T01:27:54.980Z,101719.34
2022-11-14T01:30:56.584Z,101718.44
2022-11-14T01:33:58.128Z,101714.03
2022-11-14T01:36:59.703Z,101713.09
2022-11-14T01:40:01.193Z,101713.06
2022-11-14T01:43:27.052Z,101704.19
2022-11-14T01:46:37.046Z,101700.69
2022-11-14T01:49:42.479Z,101698.09
2022-11-14T01:52:44.034Z,101689.34
2022-11-14T01:55:46.180Z,101684.94
2022-11-14T01:59:04.502Z,101675.31
2022-11-14T02:02:21.231Z,101664.72
2022-11-14T02:05:23.443Z,101645.34
2022-11-14T02:08:26.036Z,101652.38
2022-11-14T02:11:34.140Z,101641.78
2022-11-14T02:14:38.033Z,101637.47
2022-11-14T02:17:40.885Z,101632.22
2022-11-14T02:20:44.950Z,101633.19
2022-11-14T02:23:46.484Z,101631.41
2022-11-14T02:26:48.100Z,101628.84
2022-11-14T02:29:49.640Z,101628.00
2022-11-14T02:33:09.951Z,101628.91
2022-11-14T02:36:12.365Z,101617.56
2022-11-14T02:39:13.880Z,101615.84
2022-11-14T02:42:15.403Z,101601.88
2022-11-14T02:45:17.004Z,101601.06
2022-11-14T02:48:18.606Z,101590.56
2022-11-14T02:51:20.151Z,101590.59
2022-11-14T02:54:21.667Z,101588.94
2022-11-14T02:57:23.228Z,101585.41
2022-11-14T03:00:24.843Z,101583.72
2022-11-14T03:03:26.430Z,101580.25
2022-11-14T03:06:27.937Z,101568.75
2022-11-14T03:09:29.490Z,101583.75
2022-11-14T03:12:31.017Z,101575.88
2022-11-14T03:15:32.549Z,101572.44
2022-11-14T03:18:34.823Z,101578.63
2022-11-14T03:21:36.380Z,101575.13
2022-11-14T03:24:37.912Z,101571.63
2022-11-14T03:27:39.464Z,101575.97
2022-11-14T03:30:41.040Z,101567.19
2022-11-14T03:33:42.692Z,101557.53
2022-11-14T03:36:44.216Z,101569.03
2022-11-14T03:39:45.767Z,101561.16
2022-11-14T03:42:47.326Z,101564.66
2022-11-14T03:45:48.872Z,101555.88
2022-11-14T03:48:50.452Z,101552.28
2022-11-14T03:51:51.969Z,101543.56
2022-11-14T03:54:53.552Z,101542.66
2022-11-14T03:57:55.111Z,101536.56
2022-11-14T04:00:56.732Z,101526.03
2022-11-14T04:03:58.341Z,101527.78
2022-11-14T04:07:00.113Z,101538.38
2022-11-14T04:10:01.824Z,101528.75
2022-11-14T04:13:04.795Z,101527.06
2022-11-14T04:16:06.580Z,101514.81
2022-11-14T04:19:08.096Z,101521.81
2022-11-14T04:22:09.651Z,101521.81
2022-11-14T04:25:11.264Z,101513.09
2022-11-14T04:28:13.742Z,101518.44
2022-11-14T04:31:15.344Z,101508.78
2022-11-14T04:34:16.946Z,101513.25
2022-11-14T04:37:18.526Z,101495.81
2022-11-14T04:40:20.059Z,101501.19
2022-11-14T04:43:21.776Z,101495.16
2022-11-14T04:46:23.327Z,101498.72
2022-11-14T04:49:24.828Z,101493.44
2022-11-14T04:52:26.426Z,101489.84
2022-11-14T04:55:28.140Z,101489.84
2022-11-14T04:58:30.046Z,101488.16
2022-11-14T05:01:31.967Z,101485.44
2022-11-14T05:04:33.548Z,101481.03
2022-11-14T05:07:35.228Z,101483.66
2022-11-14T05:10:37.034Z,101482.75
2022-11-14T05:13:38.604Z,101481.03
2022-11-14T05:16:40.139Z,101471.44
2022-11-14T05:19:41.663Z,101462.59
2022-11-14T05:22:43.345Z,101470.44
2022-11-14T05:25:44.882Z,101465.28
2022-11-14T05:28:46.436Z,101472.41
2022-11-14T05:31:48.289Z,101467.22
2022-11-14T05:34:49.937Z,101454.94
2022-11-14T05:37:54.873Z,101450.56
2022-11-14T05:40:59.208Z,101449.66
2022-11-14T05:44:00.795Z,101444.41
2022-11-14T05:47:02.307Z,101450.78
2022-11-14T05:50:04.299Z,101444.63
2022-11-14T05:53:05.991Z,101445.56
2022-11-14T05:56:11.489Z,101440.31
2022-11-14T05:59:13.040Z,101444.94
2022-11-14T06:02:14.646Z,101437.06
2022-11-14T06:05:16.396Z,101435.41
2022-11-14T06:08:17.899Z,101435.41
2022-11-14T06:11:20.626Z,101432.88
2022-11-14T06:14:22.207Z,101438.22
2022-11-14T06:17:23.743Z,101430.41
2022-11-14T06:20:25.272Z,101434.88
2022-11-14T06:23:27.042Z,101427.88
2022-11-14T06:26:30.619Z,101432.28
2022-11-14T06:29:35.466Z,101445.69
2022-11-14T06:32:37.388Z,101438.34
2022-11-14T06:35:38.958Z,101439.34
2022-11-14T06:38:42.350Z,101435.13
2022-11-14T06:41:43.867Z,101437.00
2022-11-14T06:44:45.408Z,101435.41
2022-11-14T06:47:46.895Z,101437.25
2022-11-14T06:50:56.262Z,101432.94
2022-11-14T06:53:57.944Z,101431.19
2022-11-14T06:56:59.478Z,101431.28
2022-11-14T07:00:01.541Z,101441.06
2022-11-14T07:03:03.146Z,101442.84
2022-11-14T07:06:05.689Z,101445.50
2022-11-14T07:09:07.291Z,101445.50
2022-11-14T07:12:09.624Z,101452.59
2022-11-14T07:15:11.175Z,101459.69
2022-11-14T07:18:12.710Z,101459.69
2022-11-14T07:21:14.396Z,101448.28
2022-11-14T07:24:15.984Z,101453.59
2022-11-14T07:27:17.627Z,101456.19
2022-11-14T07:30:19.324Z,101454.47
2022-11-14T07:33:20.856Z,101444.78
2022-11-14T07:36:23.352Z,101457.13
2022-11-14T07:39:24.904Z,101453.56
2022-11-14T07:42:29.819Z,101457.88
2022-11-14T07:45:31.424Z,101453.38
2022-11-14T07:48:33.655Z,101449.88
2022-11-14T07:51:35.327Z,101439.38
2022-11-14T07:54:36.890Z,101440.69
2022-11-14T07:57:41.848Z,101438.72
2022-11-14T08:00:45.625Z,101433.44
2022-11-14T08:03:47.274Z,101415.84
2022-11-14T08:06:48.855Z,101421.22
2022-11-14T08:09:50.531Z,101428.22
2022-11-14T08:13:30.271Z,101423.91
2022-11-14T08:16:25.827Z,101418.63
2022-11-14T08:19:27.409Z,101420.72
2022-11-14T08:22:29.004Z,101416.25
2022-11-14T08:25:30.570Z,101421.59
2022-11-14T08:28:32.540Z,101416.41
2022-11-14T08:31:34.388Z,101421.72
2022-11-14T08:34:36.922Z,101430.59
2022-11-14T08:37:38.514Z,101413.97
2022-11-14T08:40:40.111Z,101416.59
2022-11-14T08:43:41.636Z,101418.38
2022-11-14T08:46:43.224Z,101420.16
2022-11-14T08:49:44.754Z,101405.97
2022-11-14T08:52:51.193Z,101409.44
2022-11-14T08:55:52.736Z,101412.88
2022-11-14T08:58:54.255Z,101398.72
2022-11-14T09:01:55.809Z,101400.34
2022-11-14T09:04:57.427Z,101394.09
2022-11-14T09:07:59.120Z,101395.88
2022-11-14T09:11:05.173Z,101406.34
2022-11-14T09:14:07.444Z,101401.84
2022-11-14T09:17:09.039Z,101400.88
2022-11-14T09:20:10.527Z,101399.97
2022-11-14T09:23:12.226Z,101400.84
2022-11-14T09:26:14.195Z,101388.47
2022-11-14T09:29:16.009Z,101389.31
2022-11-14T09:32:18.016Z,101390.13
2022-11-14T09:35:19.609Z,101383.03
2022-11-14T09:38:21.159Z,101384.78
2022-11-14T09:41:26.895Z,101383.03
2022-11-14T09:44:38.998Z,101395.34
2022-11-14T09:47:48.097Z,101394.56
2022-11-14T09:51:05.435Z,101395.53
2022-11-14T09:54:19.998Z,101388.47
2022-11-14T09:57:22.017Z,101391.13
2022-11-14T10:00:29.885Z,101381.47
2022-11-14T10:03:54.583Z,101376.06
2022-11-14T10:07:31.212Z,101366.28
2022-11-14T10:10:53.192Z,101372.34
2022-11-14T10:14:12.676Z,101374.88
2022-11-14T10:17:35.482Z,101373.97
2022-11-14T10:21:02.120Z,101369.47
2022-11-14T10:24:15.096Z,101361.53
2022-11-14T10:27:25.768Z,101355.31
2022-11-14T10:30:37.612Z,101362.25
2022-11-14T10:34:02.265Z,101365.56
2022-11-14T10:37:18.601Z,101365.56
2022-11-14T10:40:25.391Z,101359.41
2022-11-14T10:43:49.886Z,101349.84
2022-11-14T10:46:56.581Z,101351.63
2022-11-14T10:50:04.832Z,101348.13
2022-11-14T10:53:19.929Z,101344.63
2022-11-14T10:56:21.989Z,101341.09
2022-11-14T10:59:23.731Z,101329.69
2022-11-14T11:02:25.304Z,101327.84
2022-11-14T11:05:30.532Z,101319.69
2022-11-14T11:08:51.053Z,101322.16
2022-11-14T11:12:02.743Z,101321.34
2022-11-14T11:15:16.322Z,101314.41
2022-11-14T11:18:35.366Z,101309.97
2022-11-14T11:21:48.560Z,101295.81
2022-11-14T11:24:50.180Z,101286.91
2022-11-14T11:28:05.582Z,101284.94
2022-11-14T11:31:09.975Z,101283.03
2022-11-14T11:34:11.507Z,101282.25
2022-11-14T11:37:22.047Z,101284.03
2022-11-14T11:40:29.048Z,101278.75
2022-11-14T11:43:52.523Z,101274.31
2022-11-14T11:47:02.987Z,101292.84
2022-11-14T11:50:04.875Z,101276.13
2022-11-14T11:53:18.284Z,101286.84
2022-11-14T11:56:25.728Z,101288.66
2022-11-14T11:59:41.915Z,101282.59
2022-11-14T12:02:50.045Z,101276.50
2022-11-14T12:06:17.690Z,101289.81
2022-11-14T12:09:48.811Z,101280.25
2022-11-14T12:13:08.472Z,101286.44
2022-11-14T12:16:13.479Z,101289.06
2022-11-14T12:19:44.875Z,101275.06
2022-11-14T12:23:12.191Z,101274.28
2022-11-14T12:26:16.472Z,101279.59
2022-11-14T12:29:55.606Z,101260.31
2022-11-14T12:33:30.030Z,101256.63
2022-11-14T12:36:34.655Z,101256.53
2022-11-14T12:39:36.317Z,101265.81
2022-11-14T12:42:37.972Z,101250.22
2022-11-14T12:45:42.566Z,101248.88
2022-11-14T12:48:46.116Z,101248.22
2022-11-14T12:51:50.282Z,101236.06
2022-11-14T12:54:51.818Z,101242.34
2022-11-14T12:58:02.199Z,101241.63
2022-11-14T13:01:15.347Z,101236.47
2022-11-14T13:04:38.571Z,101237.31
2022-11-14T13:07:57.702Z,101226.81
2022-11-14T13:10:59.793Z,101220.75
2022-11-14T13:14:20.998Z,101223.88
2022-11-14T13:17:46.173Z,101206.22
2022-11-14T13:21:20.864Z,101192.19
2022-11-14T13:24:22.415Z,101195.75
2022-11-14T13:28:05.406Z,101206.31
2022-11-14T13:31:15.286Z,101204.44
2022-11-14T13:34:36.195Z,101203.72
2022-11-14T13:38:22.755Z,101198.63
2022-11-14T13:41:47.974Z,101205.00
2022-11-14T13:45:27.011Z,101201.47
2022-11-14T13:48:47.899Z,101179.56
2022-11-14T13:51:53.606Z,101183.97
2022-11-14T13:54:55.795Z,101172.50
2022-11-14T13:58:35.900Z,101167.22
2022-11-14T14:01:49.095Z,101153.13
2022-11-14T14:05:01.910Z,101160.28
2022-11-14T14:08:38.917Z,101164.66
2022-11-14T14:12:14.786Z,101167.34
2022-11-14T14:15:23.263Z,101166.50
2022-11-14T14:19:24.601Z,101154.06
2022-11-14T14:22:47.466Z,101155.88
2022-11-14T14:26:07.749Z,101145.88
2022-11-14T14:29:21.307Z,101146.09
2022-11-14T14:32:24.302Z,101142.06
2022-11-14T14:35:29.221Z,101137.13
2022-11-14T14:38:31.092Z,101138.34
2022-11-14T14:41:33.442Z,101138.56
2022-11-14T14:44:40.128Z,101142.28
2022-11-14T14:47:44.102Z,101138.94
2022-11-14T14:50:50.791Z,101125.06
2022-11-14T14:53:53.958Z,101130.47
2022-11-14T14:57:02.613Z,101139.41
2022-11-14T15:00:17.474Z,101126.41
2022-11-14T15:03:19.877Z,101129.25
2022-11-14T15:06:30.036Z,101122.31
2022-11-14T15:09:31.679Z,101123.22
2022-11-14T15:12:34.099Z,101119.88
2022-11-14T15:15:37.823Z,101126.19
2022-11-14T15:18:39.748Z,101117.47
2022-11-14T15:21:41.616Z,101115.81
2022-11-14T15:24:43.645Z,101121.25
2022-11-14T15:27:52.349Z,101119.53
2022-11-14T15:31:02.386Z,101118.72
2022-11-14T15:34:07.111Z,101129.47
2022-11-14T15:37:14.647Z,101116.38
2022-11-14T15:40:20.050Z,101115.66
2022-11-14T15:43:37.992Z,101108.75
2022-11-14T15:46:57.368Z,101110.75
2022-11-14T15:50:14.169Z,101111.88
2022-11-14T15:53:25.272Z,101097.06
2022-11-14T15:56:28.894Z,101105.13
2022-11-14T15:59:31.630Z,101093.78
2022-11-14T16:02:34.573Z,101095.56
2022-11-14T16:05:36.135Z,101100.97
2022-11-14T16:08:37.639Z,101097.34
2022-11-14T16:11:39.173Z,101106.13
2022-11-14T16:14:41.540Z,101105.34
2022-11-14T16:17:46.331Z,101100.06
2022-11-14T16:20:48.155Z,101093.34
2022-11-14T16:23:50.338Z,101085.69
2022-11-14T16:26:51.902Z,101091.84
2022-11-14T16:29:54.184Z,101077.31
2022-11-14T16:32:55.815Z,101077.84
2022-11-14T16:35:59.213Z,101069.41
2022-11-14T16:39:03.283Z,101069.84
2022-11-14T16:42:05.311Z,101063.06
2022-11-14T16:45:07.589Z,101069.56
2022-11-14T16:48:09.205Z,101069.78
2022-11-14T16:51:40.841Z,101063.75
2022-11-14T16:54:33.307Z,101059.41
2022-11-14T16:57:37.090Z,101060.41
2022-11-14T17:00:43.129Z,101065.91
2022-11-14T17:03:44.659Z,101076.59
2022-11-14T17:06:46.216Z,101075.00
2022-11-14T17:09:47.820Z,101068.16
2022-11-14T17:12:49.357Z,101076.19
2022-11-14T17:15:51.083Z,101074.63
2022-11-14T17:18:54.635Z,101069.44
2022-11-14T17:21:56.191Z,101065.91
2022-11-14T17:24:57.719Z,101058.03
2022-11-14T17:27:59.312Z,101054.63
2022-11-14T17:31:05.878Z,101045.81
2022-11-14T17:34:09.459Z,101056.47
2022-11-14T17:37:10.987Z,101049.53
2022-11-14T17:40:15.475Z,101050.44
2022-11-14T17:43:17.464Z,101035.53
2022-11-14T17:46:18.960Z,101045.31
2022-11-14T17:49:20.502Z,101038.22
2022-11-14T17:52:22.008Z,101030.47
2022-11-14T17:55:23.564Z,101020.78
2022-11-14T17:58:26.873Z,101021.78
2022-11-14T18:01:30.981Z,101020.00
2022-11-14T18:04:32.538Z,101028.81
2022-11-14T18:07:34.115Z,101020.94
2022-11-14T18:10:35.951Z,101029.84
2022-11-14T18:13:38.162Z,101022.03
2022-11-14T18:17:10.612Z,101023.06
2022-11-14T18:20:01.406Z,101025.75
2022-11-14T18:23:02.916Z,101029.34
2022-11-14T18:26:16.125Z,101023.19
2022-11-14T18:29:18.114Z,101023.19
2022-11-14T18:32:19.712Z,101015.31
2022-11-14T18:35:21.279Z,101020.59
2022-11-14T18:38:22.807Z,101016.19
2022-11-14T18:41:24.715Z,101016.19
2022-11-14T18:44:26.501Z,101007.25
2022-11-14T18:47:29.860Z,101009.13
2022-11-14T18:50:31.571Z,101003.97
2022-11-14T18:53:34.094Z,100996.13
2022-11-14T18:56:35.731Z,101004.09
2022-11-14T18:59:37.407Z,100995.34
2022-11-14T19:02:38.915Z,100991.88
2022-11-14T19:05:40.543Z,100979.66
2022-11-14T19:08:42.386Z,100977.97
2022-11-14T19:12:03.052Z,100981.50
2022-11-14T19:15:04.935Z,100980.72
2022-11-14T19:18:06.477Z,100972.00
2022-11-14T19:21:08.998Z,100984.28
2022-11-14T19:24:10.852Z,100981.63
2022-11-14T19:27:13.801Z,100974.66
2022-11-14T19:30:16.540Z,100968.59
2022-11-14T19:33:18.089Z,100968.59
2022-11-14T19:36:52.675Z,100961.50
2022-11-14T19:39:44.328Z,100958.06
2022-11-14T19:42:45.850Z,100947.59
2022-11-14T19:45:48.680Z,100945.81
2022-11-14T19:48:50.243Z,100943.09
2022-11-14T19:51:52.361Z,100950.09
2022-11-14T19:54:54.421Z,100943.88
2022-11-14T19:57:55.949Z,100942.09
2022-11-14T20:01:09.379Z,100935.03
2022-11-14T20:04:12.496Z,100928.13
2022-11-14T20:07:14.548Z,100927.31
2022-11-14T20:10:16.298Z,100918.53
2022-11-14T20:13:18.018Z,100914.19
2022-11-14T20:16:25.399Z,100909.75
2022-11-14T20:19:27.671Z,100909.84
2022-11-14T20:22:29.236Z,100898.41
2022-11-14T20:25:30.784Z,100890.53
2022-11-14T20:28:32.713Z,100899.47
2022-11-14T20:31:34.363Z,100905.59
2022-11-14T20:34:35.914Z,100905.59
2022-11-14T20:37:37.563Z,100902.03
2022-11-14T20:40:39.091Z,100903.75
2022-11-14T20:43:41.744Z,100896.75
2022-11-14T20:46:43.315Z,100901.09
2022-11-14T20:49:46.905Z,100899.47
2022-11-14T20:52:48.756Z,100884.63
2022-11-14T20:55:53.903Z,100882.00
2022-11-14T20:58:55.458Z,100877.63
2022-11-14T21:01:57.057Z,100866.19
2022-11-14T21:04:59.314Z,100865.41
2022-11-14T21:08:00.858Z,100861.91
2022-11-14T21:11:05.249Z,100866.31
2022-11-14T21:14:06.882Z,100862.78
2022-11-14T21:17:08.441Z,100862.78
2022-11-14T21:20:10.358Z,100859.88
2022-11-14T21:23:11.898Z,100858.06
2022-11-14T21:26:19.826Z,100852.66
2022-11-14T21:29:21.369Z,100850.88
2022-11-14T21:32:22.906Z,100854.38
2022-11-14T21:35:24.471Z,100837.59
2022-11-14T21:38:26.303Z,100833.09
2022-11-14T21:41:29.226Z,100834.81
2022-11-14T21:44:30.877Z,100827.69
2022-11-14T21:47:33.723Z,100828.47
2022-11-14T21:50:35.265Z,100824.03
2022-11-14T21:53:37.397Z,100819.50
2022-11-14T21:56:38.955Z,100821.13
2022-11-14T21:59:40.542Z,100821.03
2022-11-14T22:03:00.491Z,100824.47
2022-11-14T22:06:02.351Z,100815.53
2022-11-14T22:09:03.927Z,100811.91
2022-11-14T22:12:05.895Z,100822.41
2022-11-14T22:15:08.049Z,100821.41
2022-11-14T22:18:09.591Z,100815.19
2022-11-14T22:21:11.143Z,100810.69
2022-11-14T22:24:12.671Z,100803.56
2022-11-14T22:27:14.184Z,100806.03
2022-11-14T22:30:15.883Z,100802.47
2022-11-14T22:33:17.475Z,100803.25
2022-11-14T22:36:19.911Z,100795.28
2022-11-14T22:39:21.418Z,100796.84
2022-11-14T22:42:22.959Z,100795.75
2022-11-14T22:45:24.552Z,100797.38
2022-11-14T22:48:28.117Z,100795.56
2022-11-14T22:51:29.644Z,100780.47
2022-11-14T22:54:31.176Z,100788.25
2022-11-14T22:57:32.695Z,100778.47
2022-11-14T23:00:34.236Z,100787.09
2022-11-14T23:03:36.015Z,100784.28
2022-11-14T23:06:37.752Z,100772.63
2022-11-14T23:09:39.304Z,100772.47
2022-11-14T23:12:40.855Z,100769.78
2022-11-14T23:15:47.143Z,100776.47
2022-11-14T23:18:49.395Z,100774.59
2022-11-14T23:21:50.916Z,100769.19
2022-11-14T23:24:52.473Z,100775.16
2022-11-14T23:27:54.033Z,100764.41
2022-11-14T23:30:56.769Z,100766.91
2022-11-14T23:33:58.435Z,100760.53
2022-11-14T23:36:59.957Z,100761.25
2022-11-14T23:40:01.475Z,100761.13
2022-11-14T23:43:03.005Z,100768.06
2022-11-14T23:46:04.537Z,100761.75
2022-11-14T23:49:06.088Z,100763.38
2022-11-14T23:52:07.770Z,100764.22
2022-11-14T23:55:09.408Z,100773.97
2022-11-14T23:58:10.922Z,100769.59
